Aérodrome :
LOGIN :

S'inscrire | Disclaimer

   EN    FR    IT 

 










Légende :    VFR   VFR Marginal   IFR   IFR Intensif   IFR Très Intensif
Visi : 
Plafond : 
>= 8 km
>= 3000ft
5 à 8 km
1000 à 3000 ft
1500m à 5 km
500 à 1000 ft
800 à 1500m
200 à 500 ft
< 800m
< 200 ft
Symboles :   Orages  Brouillard  Fortes neiges  Fortes précipitations  Vent > 20 kt
SIGMETs :   Divers  Orages  Givrage  Turbulence  Onde Orograph.  Cendres Volcan.







- Altitude de l'aérodrome : 443 ft
- Code IATA : GNA


UMMG - Grodno

DERNIER METAR :
  • 270830Z 30012G17MPS 9999 BKN030 BKN066 22/15 Q1009 R35/CLRD// TEMPO 32014G19MPS

METARs EXPIRÉS :
  • 270800Z 30012G17MPS 9999 BKN026 BKN066 22/15 Q1009 R35/CLRD// TEMPO 32013G18MPS
  • 270730Z 31011G16MPS 9999 BKN023 BKN066 21/16 Q1009 R35/CLRD// NOSIG
  • 270720Z 30010G15MPS 9999 BKN020 BKN066 21/16 Q1009 R35/CLRD// NOSIG
  • 270700Z 31010G14MPS 9999 BKN018 BKN066 21/16 Q1009 R35/CLRD// NOSIG
  • 270630Z 30010G14MPS 9999 BKN016 BKN066 20/17 Q1009 R35/CLRD// NOSIG
  • 270600Z 30010G14MPS 9999 BKN015 OVC066 20/17 Q1009 R35/CLRD// NOSIG

TAF TAF UMMG
Valide du 27 à 09h jusqu'au 27 à 18h UTC


270800Z 2709/2718 32011G16MPS 9999 BKN010CB BKN020
TEMPO 2709/2716 VRB14G19MPS 2100 -TSRAGR BKN007
Pas de NOTAMs connus pour ce terrain.
1 SIGMET publié pour la FIR Minsk (UMMV) :
 
Orages noyés dans la masse avec grêle
UMMV SIGMET 3 VALID 270700/271000 UMMS
UMMV MINSK FIR EMBD TSGR OBS AT 0647Z NE OF LINE N55 E025 - N51 E028 TOP FL460 MOV E 30KMH NC=



MET'MAP, la Météo Aéronautique d'un coup d'oeil ! - Copyright ORBIFLY Décembre 2007 - Disclaimer

ORBIFLY MET'MAP TEAM :

Programmation & Développement : Alexandra Zaïnal
Conception & Développement : Baudouin d'Aumeries
Co-Programmation & Développement : Marc-Olivier Méhu
Soutien technique & logistique : Manuel Goepfert

Contact : metmap@orbifly.com




SOURCES & CREDITS :

   NOAA